Portada
METAR-TAF:

METAR-TAF

Aeropuertos :

Sharurah, Arabia Saudita

latitud: 17-28N, longitud: 047-07E, altitud: 720 m

Observación

El informe se hizo hace 40 minutos, a las 11:00 UTC
Viento 8 kt del sur-sureste
Temperatura 39°C
Humedad 9%
Presión 1012 hPa
Visibilidad 10 km o más
sin nubes por debajo de 1500 m y sin presencia de cumulonimbus.

METAR: OESH 041100Z 15008KT CAVOK 39/00 Q1012 NOSIG

Hora: 14:40 (11:40 UTC)

Pronóstico

El informe se hizo hace 40 minutos, a las 11:00 UTC
Pronóstico válido del 04 a las 12 UTC al 05 a las 18 UTC
Viento 12 kt del este-sureste
Visibilidad: 6000 m
Nubes dispersas a una altura de 4000 ft
Evolucionando progresivamente
del 04 a las 20 UTC al 04 a las 22 UTC
Viento 8 kt del sur
Evolucionando progresivamente
del 05 a las 06 UTC al 05 a las 08 UTC
Viento 12 kt del este-sureste

TAF: OESH 041100Z 0412/0518 12012KT 6000 SCT040 BECMG 0420/0422 18008KT BECMG 0506/0508 11012KT

Observaciones y pronósticos meteorológicos de más de 4000 aeropuertos (mensajes METAR y TAF).

Los puntos amarillos y rojos representan las estaciones disponibles.

Ponga el ratón en el punto deseado para ver el nombre de la estación.

Haga clic para ver las observaciones y los pronósticos meteorológicos.

Para cambiar el mapa : haga clic en los botones verdes con una cruz de color negro para hacer un zoom, en el botón verde con un guión para alejar o en las flechas verdes para mapas adyacentes.


METAR-TAF: